createdAt,value
2019-02-17T00:02:31.354Z,85.90
2019-02-17T00:05:03.691Z,84.40
2019-02-17T00:07:47.640Z,84.50
2019-02-17T00:10:19.967Z,84.40
2019-02-17T00:12:52.314Z,84.80
2019-02-17T00:15:24.700Z,84.60
2019-02-17T00:17:57.024Z,85.80
2019-02-17T00:20:41.977Z,85.90
2019-02-17T00:23:14.372Z,84.80
2019-02-17T00:25:46.749Z,85.00
2019-02-17T00:28:20.417Z,85.10
2019-02-17T00:30:52.772Z,87.50
2019-02-17T00:33:25.130Z,88.40
2019-02-17T00:35:57.457Z,89.30
2019-02-17T00:38:29.783Z,90.20
2019-02-17T00:41:02.129Z,91.30
2019-02-17T00:43:34.456Z,92.70
2019-02-17T00:46:06.867Z,94.90
2019-02-17T00:48:39.169Z,95.20
2019-02-17T00:51:11.527Z,95.50
2019-02-17T00:53:43.904Z,95.90
2019-02-17T00:56:16.248Z,95.40
2019-02-17T00:59:09.325Z,94.30
2019-02-17T01:01:34.158Z,92.40
2019-02-17T01:04:06.525Z,89.20
2019-02-17T01:06:38.882Z,86.40
2019-02-17T01:09:11.219Z,85.40
2019-02-17T01:11:55.158Z,84.10
2019-02-17T01:14:27.595Z,82.80
2019-02-17T01:16:59.944Z,81.90
2019-02-17T01:19:32.258Z,82.60
2019-02-17T01:22:04.634Z,81.90
2019-02-17T01:24:36.921Z,81.80
2019-02-17T01:27:09.238Z,82.10
2019-02-17T01:29:41.554Z,82.20
2019-02-17T01:32:13.900Z,82.70
2019-02-17T01:34:46.210Z,83.20
2019-02-17T01:37:29.376Z,83.60
2019-02-17T01:40:01.815Z,82.50
2019-02-17T01:42:34.179Z,82.20
2019-02-17T01:45:07.206Z,83.30
2019-02-17T01:47:39.583Z,84.20
2019-02-17T01:50:11.902Z,84.30
2019-02-17T01:52:44.276Z,84.80
2019-02-17T01:55:16.621Z,86.00
2019-02-17T01:57:48.978Z,86.20
2019-02-17T02:00:21.316Z,85.70
2019-02-17T02:02:53.701Z,85.20
2019-02-17T02:05:37.143Z,84.60
2019-02-17T02:08:09.587Z,84.80
2019-02-17T02:10:41.934Z,84.30
2019-02-17T02:13:14.282Z,84.30
2019-02-17T02:15:46.608Z,83.80
2019-02-17T02:18:30.507Z,84.50
2019-02-17T02:21:02.936Z,85.50
2019-02-17T02:23:35.563Z,86.30
2019-02-17T02:26:07.846Z,87.00
2019-02-17T02:28:50.836Z,87.70
2019-02-17T02:31:23.301Z,87.50
2019-02-17T02:33:55.651Z,87.90
2019-02-17T02:36:27.968Z,88.30
2019-02-17T02:39:00.361Z,87.10
2019-02-17T02:41:35.021Z,87.40
2019-02-17T02:44:06.770Z,88.90
2019-02-17T02:46:39.092Z,88.80
2019-02-17T02:49:11.468Z,88.60
2019-02-17T02:51:55.363Z,88.00
2019-02-17T02:54:27.803Z,89.60
2019-02-17T02:57:00.133Z,90.20
2019-02-17T02:59:32.526Z,90.30
2019-02-17T03:02:04.953Z,88.70
2019-02-17T03:04:37.350Z,89.10
2019-02-17T03:07:13.037Z,88.70
2019-02-17T03:09:45.384Z,87.80
2019-02-17T03:12:17.751Z,87.20
2019-02-17T03:14:50.117Z,86.30
2019-02-17T03:17:22.453Z,86.10
2019-02-17T03:19:54.840Z,85.80
2019-02-17T03:22:27.207Z,84.60
2019-02-17T03:25:10.145Z,83.30
2019-02-17T03:27:42.572Z,83.00
2019-02-17T03:30:14.925Z,82.40
2019-02-17T03:32:47.279Z,81.90
2019-02-17T03:35:19.702Z,80.60
2019-02-17T03:37:52.120Z,79.80
2019-02-17T03:40:24.528Z,79.10
2019-02-17T03:42:56.833Z,78.30
2019-02-17T03:45:29.242Z,77.70
2019-02-17T03:48:01.645Z,77.20
2019-02-17T03:50:33.961Z,77.20
2019-02-17T03:53:06.350Z,77.80
2019-02-17T03:55:38.706Z,78.20
2019-02-17T03:58:11.083Z,79.30
2019-02-17T04:00:43.418Z,79.90
2019-02-17T04:03:15.816Z,80.20
2019-02-17T04:05:48.102Z,80.70
2019-02-17T04:08:20.540Z,81.10
2019-02-17T04:10:52.894Z,80.90
2019-02-17T04:13:25.282Z,80.90
2019-02-17T04:15:57.640Z,81.10
2019-02-17T04:18:29.998Z,81.80
2019-02-17T04:21:12.907Z,82.40
2019-02-17T04:23:45.320Z,81.80
2019-02-17T04:26:17.698Z,80.90
2019-02-17T04:28:50.063Z,80.10
2019-02-17T04:31:22.411Z,79.90
2019-02-17T04:34:05.790Z,80.30
2019-02-17T04:36:38.166Z,81.60
2019-02-17T04:39:10.532Z,82.10
2019-02-17T04:41:42.932Z,82.90
2019-02-17T04:44:15.285Z,83.50
2019-02-17T04:46:47.635Z,83.60
2019-02-17T04:49:20.010Z,83.80
2019-02-17T04:51:52.329Z,84.60
2019-02-17T04:54:24.712Z,85.40
2019-02-17T04:56:58.160Z,86.70
2019-02-17T04:59:30.559Z,87.20
2019-02-17T05:02:02.892Z,88.00
2019-02-17T05:04:35.290Z,89.20
2019-02-17T05:07:07.646Z,89.60
2019-02-17T05:09:40.023Z,89.20
2019-02-17T05:12:22.402Z,90.90
2019-02-17T05:14:54.898Z,90.50
2019-02-17T05:17:27.255Z,88.90
2019-02-17T05:19:59.677Z,87.50
2019-02-17T05:22:31.981Z,87.00
2019-02-17T05:25:05.838Z,86.40
2019-02-17T05:27:38.152Z,86.10
2019-02-17T05:30:10.751Z,85.70
2019-02-17T05:32:43.096Z,85.30
2019-02-17T05:35:26.055Z,84.90
2019-02-17T05:37:58.492Z,85.00
2019-02-17T05:40:30.917Z,84.80
2019-02-17T05:43:03.254Z,84.60
2019-02-17T05:45:35.660Z,84.40
2019-02-17T05:48:07.992Z,85.00
2019-02-17T05:50:40.390Z,85.20
2019-02-17T05:53:12.761Z,85.60
2019-02-17T05:55:45.141Z,86.10
2019-02-17T05:58:17.634Z,86.30
2019-02-17T06:00:50.211Z,86.20
2019-02-17T06:03:22.548Z,86.50
2019-02-17T06:06:05.577Z,86.70
2019-02-17T06:08:38.033Z,86.80
2019-02-17T06:11:10.409Z,86.90
2019-02-17T06:13:42.757Z,86.50
2019-02-17T06:16:15.142Z,85.20
2019-02-17T06:18:47.474Z,83.20
2019-02-17T06:21:19.836Z,81.10
2019-02-17T06:23:52.203Z,78.60
2019-02-17T06:26:24.570Z,76.90
2019-02-17T06:29:08.469Z,75.40
2019-02-17T06:31:40.865Z,74.50
2019-02-17T06:34:13.222Z,74.30
2019-02-17T06:36:45.559Z,73.90
2019-02-17T06:39:17.915Z,74.40
2019-02-17T06:42:00.376Z,75.00
2019-02-17T06:44:32.820Z,75.10
2019-02-17T06:47:07.150Z,74.40
2019-02-17T06:49:39.456Z,74.10
2019-02-17T06:52:11.843Z,73.60
2019-02-17T06:54:45.779Z,72.20
2019-02-17T06:57:25.542Z,71.20
2019-02-17T07:00:14.718Z,70.10
2019-02-17T07:02:47.135Z,69.40
2019-02-17T07:05:28.932Z,69.60
2019-02-17T07:08:01.279Z,68.80
2019-02-17T07:10:33.679Z,66.70
2019-02-17T07:13:06.046Z,65.00
2019-02-17T07:15:38.399Z,63.20
2019-02-17T07:18:10.776Z,62.20
2019-02-17T07:20:43.073Z,61.60
2019-02-17T07:23:15.523Z,61.10
2019-02-17T07:25:47.876Z,61.40
2019-02-17T07:28:20.240Z,60.40
2019-02-17T07:30:52.590Z,59.80
2019-02-17T07:33:25.001Z,59.10
2019-02-17T07:35:58.673Z,58.90
2019-02-17T07:38:31.020Z,58.70
2019-02-17T07:41:03.444Z,58.60
2019-02-17T07:43:35.753Z,58.40
2019-02-17T07:46:08.045Z,57.50
2019-02-17T07:48:40.411Z,57.40
2019-02-17T07:51:12.754Z,56.60
2019-02-17T07:54:01.455Z,55.80
2019-02-17T07:56:33.801Z,56.10
2019-02-17T07:59:17.710Z,55.90
2019-02-17T08:01:50.208Z,56.40
2019-02-17T08:04:22.526Z,56.20
2019-02-17T08:06:54.889Z,55.60
2019-02-17T08:09:27.248Z,55.70
2019-02-17T08:11:59.643Z,55.60
2019-02-17T08:14:31.960Z,54.80
2019-02-17T08:17:04.338Z,53.70
2019-02-17T08:19:36.663Z,52.20
2019-02-17T08:22:09.051Z,50.90
2019-02-17T08:24:41.376Z,49.70
2019-02-17T08:27:13.723Z,48.10
2019-02-17T08:29:46.171Z,48.60
2019-02-17T08:32:18.586Z,48.80
2019-02-17T08:34:53.121Z,48.90
2019-02-17T08:37:24.940Z,48.80
2019-02-17T08:39:57.247Z,49.70
2019-02-17T08:42:29.614Z,50.80
2019-02-17T08:45:13.003Z,51.10
2019-02-17T08:47:45.451Z,50.90
2019-02-17T08:50:36.853Z,51.60
2019-02-17T08:53:09.879Z,51.60
2019-02-17T08:56:01.269Z,52.00
2019-02-17T08:58:33.665Z,51.10
2019-02-17T09:01:05.993Z,51.90
2019-02-17T09:03:38.370Z,49.30
2019-02-17T09:06:22.398Z,49.40
2019-02-17T09:08:54.835Z,49.00
2019-02-17T09:11:27.171Z,49.20
2019-02-17T09:13:59.572Z,47.50
2019-02-17T09:16:31.985Z,46.50
2019-02-17T09:19:04.431Z,46.90
2019-02-17T09:21:36.780Z,45.70
2019-02-17T09:24:09.146Z,43.70
2019-02-17T09:26:41.515Z,42.20
2019-02-17T09:29:13.898Z,42.50
2019-02-17T09:31:46.315Z,41.60
2019-02-17T09:34:18.641Z,39.60
2019-02-17T09:36:51.058Z,39.80
2019-02-17T09:39:34.917Z,38.70
2019-02-17T09:42:07.398Z,38.70
2019-02-17T09:44:39.741Z,38.70
2019-02-17T09:47:12.128Z,39.50
2019-02-17T09:49:44.408Z,38.10
2019-02-17T09:52:16.830Z,37.60
2019-02-17T09:54:49.229Z,37.40
2019-02-17T09:57:21.588Z,37.80
2019-02-17T09:59:53.981Z,36.50
2019-02-17T10:02:37.580Z,37.60
2019-02-17T10:05:10.046Z,37.10
2019-02-17T10:07:42.533Z,35.50
2019-02-17T10:10:15.131Z,36.30
2019-02-17T10:12:47.457Z,34.30
2019-02-17T10:15:19.793Z,34.60
2019-02-17T10:17:52.290Z,35.20
2019-02-17T10:20:24.746Z,37.00
2019-02-17T10:22:57.107Z,36.50
2019-02-17T10:25:29.514Z,37.30
2019-02-17T10:28:01.926Z,37.60
2019-02-17T10:30:34.283Z,38.10
2019-02-17T10:33:06.691Z,37.60
2019-02-17T10:35:40.541Z,37.30
2019-02-17T10:38:12.918Z,36.70
2019-02-17T10:40:45.270Z,37.20
2019-02-17T10:43:17.696Z,37.30
2019-02-17T10:45:50.024Z,38.30
2019-02-17T10:48:22.400Z,39.40
2019-02-17T10:50:54.736Z,38.80
2019-02-17T10:53:27.034Z,38.70
2019-02-17T10:56:10.403Z,38.10
2019-02-17T10:58:42.869Z,38.40
2019-02-17T11:01:15.256Z,38.40
2019-02-17T11:04:12.878Z,37.60
2019-02-17T11:06:43.726Z,38.40
2019-02-17T11:09:20.772Z,38.00
2019-02-17T11:11:53.329Z,38.40
2019-02-17T11:14:25.700Z,38.90
2019-02-17T11:16:58.035Z,39.20
2019-02-17T11:19:30.473Z,40.10
2019-02-17T11:22:02.878Z,39.70
2019-02-17T11:24:35.282Z,38.70
2019-02-17T11:27:07.640Z,41.10
2019-02-17T11:29:40.088Z,40.10
2019-02-17T11:32:12.512Z,39.30
2019-02-17T11:34:44.890Z,40.40
2019-02-17T11:37:17.216Z,39.50
2019-02-17T11:39:49.592Z,39.60
2019-02-17T11:42:21.959Z,39.10
2019-02-17T11:44:54.309Z,38.20
2019-02-17T11:47:26.642Z,39.60
2019-02-17T11:49:58.998Z,39.60
2019-02-17T11:52:42.999Z,40.50
2019-02-17T11:55:15.457Z,41.60
2019-02-17T11:57:47.813Z,41.80
2019-02-17T12:00:20.892Z,40.60
2019-02-17T12:02:53.225Z,42.00
2019-02-17T12:05:25.622Z,40.70
2019-02-17T12:07:58.019Z,40.40
2019-02-17T12:10:40.450Z,40.50
2019-02-17T12:13:12.927Z,39.10
2019-02-17T12:15:45.343Z,37.80
2019-02-17T12:18:17.688Z,38.00
2019-02-17T12:21:05.998Z,38.30
2019-02-17T12:23:44.409Z,39.30
2019-02-17T12:26:43.797Z,40.90
2019-02-17T12:29:29.980Z,40.90
2019-02-17T12:32:02.288Z,38.90
2019-02-17T12:34:34.704Z,38.60
2019-02-17T12:37:07.089Z,38.70
2019-02-17T12:39:39.456Z,38.70
2019-02-17T12:42:22.467Z,37.50
2019-02-17T12:44:57.027Z,36.80
2019-02-17T12:47:28.931Z,36.60
2019-02-17T12:50:01.656Z,35.10
2019-02-17T12:52:33.994Z,35.90
2019-02-17T12:55:06.490Z,35.60
2019-02-17T12:57:38.876Z,35.00
2019-02-17T13:00:15.326Z,34.90
2019-02-17T13:02:47.681Z,34.00
2019-02-17T13:05:20.019Z,34.30
2019-02-17T13:07:52.607Z,32.50
2019-02-17T13:10:24.969Z,31.30
2019-02-17T13:12:57.939Z,30.00
2019-02-17T13:15:30.367Z,28.60
2019-02-17T13:18:02.732Z,29.30
2019-02-17T13:20:35.038Z,29.00
2019-02-17T13:23:17.922Z,27.20
2019-02-17T13:25:50.374Z,27.40
2019-02-17T13:28:22.798Z,27.40
2019-02-17T13:30:55.159Z,26.80
2019-02-17T13:33:27.466Z,26.90
2019-02-17T13:35:59.842Z,26.70
2019-02-17T13:38:32.264Z,26.70
2019-02-17T13:41:04.587Z,27.70
2019-02-17T13:43:36.942Z,27.70
2019-02-17T13:46:20.941Z,26.40
2019-02-17T13:48:53.387Z,29.00
2019-02-17T13:51:25.785Z,31.10
2019-02-17T13:53:58.116Z,30.90
2019-02-17T13:56:30.478Z,32.70
2019-02-17T13:59:02.795Z,34.00
2019-02-17T14:01:35.204Z,34.30
2019-02-17T14:04:07.523Z,33.20
2019-02-17T14:06:39.905Z,34.50
2019-02-17T14:09:22.296Z,35.20
2019-02-17T14:11:54.721Z,37.30
2019-02-17T14:14:27.069Z,38.80
2019-02-17T14:16:59.425Z,40.30
2019-02-17T14:19:31.794Z,40.30
2019-02-17T14:22:15.703Z,40.20
2019-02-17T14:24:48.110Z,39.80
2019-02-17T14:27:20.477Z,40.80
2019-02-17T14:29:52.832Z,41.80
2019-02-17T14:32:25.219Z,40.70
2019-02-17T14:34:57.617Z,41.40
2019-02-17T14:37:30.042Z,41.10
2019-02-17T14:40:02.369Z,40.40
2019-02-17T14:42:34.797Z,40.50
2019-02-17T14:45:07.303Z,40.40
2019-02-17T14:47:39.698Z,40.00
2019-02-17T14:50:12.119Z,40.80
2019-02-17T14:52:44.539Z,40.40
2019-02-17T14:55:16.859Z,40.40
2019-02-17T14:57:49.306Z,40.10
2019-02-17T15:00:21.652Z,40.40
2019-02-17T15:02:54.049Z,41.10
2019-02-17T15:05:26.397Z,40.80
2019-02-17T15:07:58.794Z,40.30
2019-02-17T15:10:31.119Z,41.10
2019-02-17T15:13:03.476Z,41.40
2019-02-17T15:15:35.817Z,41.20
2019-02-17T15:18:08.189Z,40.90
2019-02-17T15:20:40.517Z,40.60
2019-02-17T15:23:17.344Z,41.20
2019-02-17T15:25:49.702Z,41.40
2019-02-17T15:28:22.070Z,42.50
2019-02-17T15:30:54.405Z,41.90
2019-02-17T15:33:26.762Z,42.80
2019-02-17T15:35:59.044Z,43.20
2019-02-17T15:38:31.385Z,43.20
2019-02-17T15:41:03.771Z,43.20
2019-02-17T15:43:36.187Z,43.60
2019-02-17T15:46:08.494Z,44.60
2019-02-17T15:48:40.890Z,45.70
2019-02-17T15:51:13.198Z,45.80
2019-02-17T15:53:56.657Z,46.50
2019-02-17T15:56:29.074Z,46.70
2019-02-17T15:59:01.481Z,47.00
2019-02-17T16:01:33.787Z,47.20
2019-02-17T16:04:06.124Z,47.40
2019-02-17T16:06:48.953Z,46.50
2019-02-17T16:09:21.490Z,47.40
2019-02-17T16:11:53.828Z,47.80
2019-02-17T16:14:26.174Z,48.70
2019-02-17T16:16:58.480Z,48.90
2019-02-17T16:19:30.867Z,49.80
2019-02-17T16:22:03.213Z,49.80
2019-02-17T16:24:35.610Z,50.70
2019-02-17T16:27:07.977Z,51.10
2019-02-17T16:29:50.957Z,51.10
2019-02-17T16:32:23.347Z,51.30
2019-02-17T16:34:55.772Z,51.50
2019-02-17T16:37:28.079Z,51.70
2019-02-17T16:40:00.394Z,51.70
2019-02-17T16:42:43.374Z,51.70
2019-02-17T16:45:15.952Z,51.40
2019-02-17T16:47:48.616Z,52.10
2019-02-17T16:50:21.113Z,52.40
2019-02-17T16:52:53.468Z,52.10
2019-02-17T16:55:25.857Z,51.50
2019-02-17T16:57:58.162Z,51.80
2019-02-17T17:00:30.549Z,52.20
2019-02-17T17:03:02.867Z,52.00
2019-02-17T17:05:35.243Z,52.60
2019-02-17T17:08:07.699Z,53.10
2019-02-17T17:10:40.108Z,53.50
2019-02-17T17:13:12.483Z,53.80
2019-02-17T17:15:44.850Z,54.10
2019-02-17T17:18:17.176Z,54.50
2019-02-17T17:20:49.581Z,55.00
2019-02-17T17:23:32.562Z,55.40
2019-02-17T17:26:05.010Z,55.60
2019-02-17T17:28:37.355Z,55.50
2019-02-17T17:31:09.734Z,55.70
2019-02-17T17:33:42.089Z,55.90
2019-02-17T17:36:14.475Z,55.60
2019-02-17T17:38:46.822Z,55.60
2019-02-17T17:41:19.230Z,55.40
2019-02-17T17:43:51.568Z,55.90
2019-02-17T17:46:35.985Z,56.50
2019-02-17T17:49:08.462Z,57.10
2019-02-17T17:51:40.760Z,57.60
2019-02-17T17:54:13.115Z,58.20
2019-02-17T17:56:45.473Z,58.30
2019-02-17T17:59:17.829Z,58.50
2019-02-17T18:01:50.169Z,58.80
2019-02-17T18:04:22.542Z,58.90
2019-02-17T18:07:06.437Z,58.80
2019-02-17T18:09:38.938Z,58.70
2019-02-17T18:12:11.266Z,58.60
2019-02-17T18:14:43.663Z,58.70
2019-02-17T18:17:16.049Z,58.60
2019-02-17T18:19:48.455Z,58.20
2019-02-17T18:22:20.767Z,57.20
2019-02-17T18:24:53.129Z,57.20
2019-02-17T18:27:25.453Z,56.90
2019-02-17T18:30:10.655Z,57.10
2019-02-17T18:32:43.072Z,57.20
2019-02-17T18:35:19.776Z,57.20
2019-02-17T18:37:49.485Z,57.20
2019-02-17T18:40:32.488Z,57.30
2019-02-17T18:43:04.952Z,57.40
2019-02-17T18:45:37.370Z,57.50
2019-02-17T18:48:09.705Z,57.60
2019-02-17T18:50:42.063Z,57.20
2019-02-17T18:53:15.390Z,57.30
2019-02-17T18:55:48.018Z,57.50
2019-02-17T18:58:20.324Z,57.70
2019-02-17T19:00:52.661Z,57.80
2019-02-17T19:03:24.996Z,58.20
2019-02-17T19:05:57.382Z,58.90
2019-02-17T19:08:29.749Z,59.40
2019-02-17T19:11:02.079Z,59.70
2019-02-17T19:13:34.463Z,60.20
2019-02-17T19:16:06.789Z,60.40
2019-02-17T19:18:39.186Z,60.20
2019-02-17T19:21:12.623Z,59.60
2019-02-17T19:23:44.940Z,58.30
2019-02-17T19:26:17.248Z,57.20
2019-02-17T19:28:49.644Z,56.30
2019-02-17T19:31:22.010Z,55.20
2019-02-17T19:33:54.368Z,54.50
2019-02-17T19:36:26.697Z,53.80
2019-02-17T19:38:59.093Z,53.80
2019-02-17T19:41:31.446Z,53.40
2019-02-17T19:44:15.367Z,53.40
2019-02-17T19:46:47.799Z,53.10
2019-02-17T19:49:20.331Z,52.90
2019-02-17T19:51:52.679Z,52.70
2019-02-17T19:54:25.065Z,52.60
2019-02-17T19:56:57.455Z,52.50
2019-02-17T19:59:29.897Z,52.40
2019-02-17T20:02:02.235Z,52.60
2019-02-17T20:04:39.214Z,52.50
2019-02-17T20:07:11.502Z,52.40
2019-02-17T20:09:44.216Z,52.40
2019-02-17T20:12:16.615Z,52.20
2019-02-17T20:14:48.967Z,52.10
2019-02-17T20:17:21.393Z,51.90
2019-02-17T20:19:53.826Z,51.30
2019-02-17T20:22:26.530Z,51.50
2019-02-17T20:25:09.461Z,51.20
2019-02-17T20:27:42.176Z,51.10
2019-02-17T20:30:14.623Z,50.90
2019-02-17T20:32:46.939Z,50.80
2019-02-17T20:35:19.319Z,50.40
2019-02-17T20:37:51.666Z,49.90
2019-02-17T20:40:24.019Z,49.50
2019-02-17T20:42:56.396Z,49.50
2019-02-17T20:45:38.840Z,49.00
2019-02-17T20:48:11.262Z,49.10
2019-02-17T20:50:43.639Z,49.10
2019-02-17T20:53:15.926Z,49.40
2019-02-17T20:55:48.283Z,49.60
2019-02-17T20:58:31.573Z,49.00
2019-02-17T21:01:04.279Z,49.00
2019-02-17T21:03:36.606Z,49.60
2019-02-17T21:06:12.858Z,49.50
2019-02-17T21:08:53.032Z,49.90
2019-02-17T21:11:25.520Z,50.70
2019-02-17T21:13:57.816Z,49.60
2019-02-17T21:16:30.172Z,49.60
2019-02-17T21:19:02.539Z,49.00
2019-02-17T21:21:46.430Z,48.80
2019-02-17T21:24:18.795Z,48.90
2019-02-17T21:26:51.082Z,48.50
2019-02-17T21:29:23.441Z,48.50
2019-02-17T21:31:55.775Z,48.50
2019-02-17T21:34:39.755Z,48.50
2019-02-17T21:37:12.242Z,49.00
2019-02-17T21:39:44.578Z,48.90
2019-02-17T21:42:16.985Z,49.40
2019-02-17T21:44:49.333Z,49.00
2019-02-17T21:47:21.719Z,48.90
2019-02-17T21:49:54.047Z,48.90
2019-02-17T21:52:26.433Z,49.40
2019-02-17T21:54:58.788Z,49.30
2019-02-17T21:57:41.789Z,49.80
2019-02-17T22:00:15.988Z,50.00
2019-02-17T22:02:48.452Z,50.00
2019-02-17T22:05:20.837Z,49.80
2019-02-17T22:08:03.238Z,49.50
2019-02-17T22:10:35.670Z,50.20
2019-02-17T22:13:08.071Z,49.50
2019-02-17T22:15:40.378Z,48.90
2019-02-17T22:18:12.816Z,48.90
2019-02-17T22:20:45.131Z,48.90
2019-02-17T22:23:17.458Z,49.10
2019-02-17T22:25:49.776Z,49.10
2019-02-17T22:28:22.142Z,49.50
2019-02-17T22:30:56.049Z,49.20
2019-02-17T22:33:28.445Z,49.50
2019-02-17T22:36:00.822Z,49.70
2019-02-17T22:38:33.199Z,50.20
2019-02-17T22:41:05.495Z,50.40
2019-02-17T22:43:47.988Z,50.20
2019-02-17T22:46:20.341Z,50.70
2019-02-17T22:48:52.718Z,50.90
2019-02-17T22:51:25.037Z,51.00
2019-02-17T22:53:57.643Z,51.00
2019-02-17T22:56:29.998Z,51.60
2019-02-17T22:59:02.377Z,52.20
2019-02-17T23:01:35.592Z,52.10
2019-02-17T23:04:24.674Z,52.20
2019-02-17T23:07:13.192Z,52.50
2019-02-17T23:10:01.854Z,52.70
2019-02-17T23:12:50.425Z,52.70
2019-02-17T23:15:39.742Z,53.00
2019-02-17T23:18:41.189Z,53.40
2019-02-17T23:21:29.490Z,53.70
2019-02-17T23:24:27.462Z,53.20
2019-02-17T23:27:15.963Z,53.80
2019-02-17T23:30:05.674Z,53.80
2019-02-17T23:32:54.217Z,53.10
2019-02-17T23:35:43.145Z,53.00
2019-02-17T23:38:33.387Z,53.10
2019-02-17T23:41:22.457Z,53.90
2019-02-17T23:44:11.637Z,53.60
2019-02-17T23:47:10.352Z,53.80
2019-02-17T23:49:59.372Z,53.70
2019-02-17T23:52:48.299Z,53.50
2019-02-17T23:55:37.903Z,53.20
2019-02-17T23:58:26.384Z,52.70
